Time;durP1;ratioP1;P1;durP2;ratioP2;P2;SDS_P1;SDS_P2;PMS_P1;PMS_P2;Temp;Humidity;BMP_temperature;BMP_pressure;BME280_temperature;BME280_humidity;BME280_pressure;Samples;Min_cycle;Max_cycle;Signal;HPM_P1;HPM_P2
2022/05/11 00:01:45;;;;;;;11.65;3.20;;;17.50;96.40;;;;;;5071340;28;20132;-73
2022/05/11 00:04:13;;;;;;;13.57;3.38;;;17.50;96.80;;;;;;5073765;28;20090;-72
2022/05/11 00:06:41;;;;;;;10.55;2.95;;;17.50;96.70;;;;;;5073345;28;20428;-72
2022/05/11 00:09:10;;;;;;;10.52;3.28;;;17.50;96.90;;;;;;5073473;28;20085;-72
2022/05/11 00:11:38;;;;;;;9.55;3.40;;;17.30;96.60;;;;;;5073229;28;20397;-72
2022/05/11 00:14:08;;;;;;;12.65;4.07;;;17.40;97.30;;;;;;5073400;28;20450;-72
2022/05/11 00:16:36;;;;;;;9.45;4.53;;;17.40;97.30;;;;;;5068427;28;20059;-71
2022/05/11 00:19:04;;;;;;;14.13;5.60;;;17.10;96.50;;;;;;5073460;28;20153;-72
2022/05/11 00:21:31;;;;;;;20.45;9.40;;;17.00;96.80;;;;;;5073624;28;20029;-72
2022/05/11 00:23:59;;;;;;;16.88;6.82;;;16.90;96.90;;;;;;5073275;28;20029;-73
2022/05/11 00:26:26;;;;;;;21.90;7.32;;;17.10;97.30;;;;;;5073218;28;20029;-73
2022/05/11 00:28:53;;;;;;;16.90;5.47;;;17.30;97.20;;;;;;5073015;28;20177;-73
2022/05/11 00:31:21;;;;;;;18.80;5.00;;;17.40;97.20;;;;;;5072772;28;20025;-72
2022/05/11 00:33:48;;;;;;;11.82;3.50;;;17.50;97.10;;;;;;5060014;28;20056;-73
2022/05/11 00:36:15;;;;;;;12.20;4.30;;;17.50;95.90;;;;;;5073104;28;20020;-73
2022/05/11 00:38:44;;;;;;;13.98;4.45;;;17.60;96.70;;;;;;5072726;28;20052;-73
2022/05/11 00:41:12;;;;;;;10.48;4.65;;;17.60;96.90;;;;;;5073047;28;20074;-73
2022/05/11 00:43:57;;;;;;;10.32;5.20;;;17.50;96.10;;;;;;5072883;28;20108;-73
2022/05/11 00:46:36;;;;;;;11.38;4.90;;;17.50;96.60;;;;;;5072982;28;20410;-73
2022/05/11 00:52:00;;;;;;;13.52;4.55;;;17.40;96.20;;;;;;5068129;28;20051;-72
2022/05/11 00:54:32;;;;;;;11.27;4.18;;;17.40;95.90;;;;;;5072844;28;20078;-72
2022/05/11 00:57:03;;;;;;;14.85;4.53;;;17.50;96.00;;;;;;5072760;28;20036;-73
2022/05/11 00:59:38;;;;;;;15.35;5.25;;;17.70;96.20;;;;;;5072681;28;20036;-72
2022/05/11 01:02:08;;;;;;;13.50;4.03;;;17.80;95.90;;;;;;5072672;28;20364;-73
2022/05/11 01:04:39;;;;;;;10.52;4.95;;;17.90;95.70;;;;;;5072686;28;20107;-73
2022/05/11 01:07:11;;;;;;;14.18;4.53;;;18.00;95.40;;;;;;5061403;28;20124;-73
2022/05/11 01:09:40;;;;;;;18.02;3.97;;;18.00;95.40;;;;;;5068876;28;20077;-73
2022/05/11 01:12:15;;;;;;;13.82;3.47;;;18.00;95.20;;;;;;5072379;28;20036;-73
2022/05/11 01:14:45;;;;;;;14.55;3.80;;;17.80;94.20;;;;;;5072386;28;20029;-73
2022/05/11 01:17:12;;;;;;;10.93;3.67;;;17.70;95.10;;;;;;5072650;28;20020;-73
2022/05/11 01:19:44;;;;;;;10.50;3.50;;;17.70;94.90;;;;;;5072616;28;20032;-73
2022/05/11 01:22:41;;;;;;;13.55;3.63;;;17.70;95.30;;;;;;5072491;28;20024;-74
2022/05/11 01:25:10;;;;;;;10.93;3.83;;;17.60;95.00;;;;;;5060576;28;20482;-73
2022/05/11 01:27:40;;;;;;;9.35;2.95;;;17.50;95.40;;;;;;5072367;28;20051;-73
2022/05/11 01:30:16;;;;;;;11.63;3.55;;;17.40;95.30;;;;;;5072330;28;20465;-73
2022/05/11 01:32:52;;;;;;;11.63;3.30;;;17.30;95.40;;;;;;5072340;28;20517;-74
2022/05/11 01:35:28;;;;;;;10.82;3.65;;;17.20;95.70;;;;;;5071181;28;20482;-71
2022/05/11 01:38:12;;;;;;;9.25;3.65;;;17.10;95.80;;;;;;5072030;28;20033;-71
2022/05/11 01:40:39;;;;;;;11.80;4.10;;;17.20;96.00;;;;;;5067378;28;20060;-73
2022/05/11 01:43:07;;;;;;;19.60;5.00;;;17.20;95.90;;;;;;5072025;28;20116;-72
2022/05/11 01:45:34;;;;;;;9.07;3.90;;;17.40;95.90;;;;;;5072103;28;20059;-72
2022/05/11 01:48:01;;;;;;;9.30;2.88;;;17.50;96.00;;;;;;5072232;28;20495;-71
2022/05/11 01:50:29;;;;;;;18.20;4.53;;;17.60;95.40;;;;;;5072164;28;20027;-71
2022/05/11 01:52:59;;;;;;;13.60;3.90;;;17.70;95.30;;;;;;5071945;28;20105;-72
2022/05/11 01:55:26;;;;;;;14.38;3.63;;;17.70;95.30;;;;;;5072005;28;20024;-72
2022/05/11 01:57:54;;;;;;;15.32;4.88;;;17.80;95.40;;;;;;5071470;28;20067;-72
2022/05/11 02:00:21;;;;;;;12.88;4.20;;;17.90;95.80;;;;;;5072105;28;20056;-72
2022/05/11 02:02:48;;;;;;;12.52;3.33;;;17.90;95.30;;;;;;5072104;28;20024;-72
2022/05/11 02:08:01;;;;;;;13.57;3.40;;;17.90;95.20;;;;;;5072129;28;20038;-72
2022/05/11 02:10:29;;;;;;;10.90;3.80;;;17.90;95.30;;;;;;5071607;28;20021;-72
2022/05/11 02:12:57;;;;;;;15.45;4.15;;;17.80;95.50;;;;;;5071597;28;20528;-73
2022/05/11 02:15:26;;;;;;;10.00;3.60;;;17.60;95.40;;;;;;5071177;28;20033;-73
2022/05/11 02:17:54;;;;;;;10.98;4.30;;;17.60;95.50;;;;;;5072142;28;20028;-73
2022/05/11 02:20:22;;;;;;;12.52;6.10;;;17.60;95.90;;;;;;5075732;28;20024;-73
2022/05/11 02:22:52;;;;;;;15.80;6.20;;;17.50;95.90;;;;;;5075654;28;20024;-72
2022/05/11 02:25:20;;;;;;;16.10;6.03;;;17.40;95.90;;;;;;5074196;28;20071;-73
2022/05/11 02:27:50;;;;;;;17.92;6.72;;;17.30;96.00;;;;;;5075410;28;20426;-73
2022/05/11 02:30:37;;;;;;;22.23;6.85;;;17.30;96.20;;;;;;5075250;28;20112;-73
2022/05/11 02:33:05;;;;;;;20.90;7.53;;;17.30;96.50;;;;;;5063982;28;20037;-73
2022/05/11 02:35:32;;;;;;;16.63;8.10;;;17.10;96.20;;;;;;5075318;28;20037;-71
2022/05/11 02:38:08;;;;;;;18.30;6.57;;;17.10;96.60;;;;;;5075234;28;20020;-72
2022/05/11 02:40:40;;;;;;;15.88;6.60;;;17.00;96.70;;;;;;5075323;28;20085;-71
2022/05/11 02:43:09;;;;;;;14.70;6.53;;;17.10;97.10;;;;;;5075103;28;20021;-71
2022/05/11 02:45:39;;;;;;;16.48;6.93;;;17.10;97.10;;;;;;5075096;28;20478;-71
2022/05/11 02:48:08;;;;;;;19.20;8.38;;;17.20;97.30;;;;;;5073827;28;20434;-71
2022/05/11 02:50:40;;;;;;;15.75;7.82;;;17.30;97.50;;;;;;5072469;28;20032;-70
2022/05/11 02:53:09;;;;;;;18.88;9.23;;;17.30;97.40;;;;;;5075358;28;20078;-71
2022/05/11 02:55:39;;;;;;;32.08;10.63;;;17.30;97.30;;;;;;5075051;28;20016;-71
2022/05/11 02:58:07;;;;;;;25.35;9.55;;;17.40;97.40;;;;;;5075014;28;20021;-70
2022/05/11 03:00:37;;;;;;;23.70;9.57;;;17.50;97.50;;;;;;5074889;28;20025;-71
2022/05/11 03:03:06;;;;;;;17.52;8.15;;;17.50;97.50;;;;;;5074793;28;20035;-72
2022/05/11 03:05:34;;;;;;;24.48;10.88;;;17.60;97.40;;;;;;5073621;28;20017;-72
2022/05/11 03:08:01;;;;;;;27.77;9.95;;;17.70;97.30;;;;;;5074570;28;20024;-71
2022/05/11 03:10:29;;;;;;;16.17;9.07;;;17.90;97.60;;;;;;5072997;28;20033;-72
2022/05/11 03:12:57;;;;;;;22.35;8.23;;;17.90;97.50;;;;;;5074461;28;20060;-71
2022/05/11 03:15:24;;;;;;;19.27;8.40;;;18.00;97.40;;;;;;5074549;28;20082;-71
2022/05/11 03:17:52;;;;;;;22.38;9.80;;;18.10;97.40;;;;;;5074624;28;20035;-72
2022/05/11 03:20:21;;;;;;;23.63;9.82;;;18.10;97.20;;;;;;5073400;28;20027;-72
2022/05/11 03:22:52;;;;;;;21.23;10.05;;;18.20;97.50;;;;;;5067333;28;20025;-72
2022/05/11 03:25:20;;;;;;;21.50;9.48;;;18.00;97.00;;;;;;5069665;28;20063;-72
2022/05/11 03:27:48;;;;;;;18.52;7.88;;;17.90;97.00;;;;;;5074461;28;20118;-72
2022/05/11 03:30:16;;;;;;;23.80;9.55;;;17.80;96.50;;;;;;5073077;28;20758;-72
2022/05/11 03:35:29;;;;;;;17.80;9.40;;;17.60;96.70;;;;;;5074533;28;20238;-72
2022/05/11 03:37:56;;;;;;;17.58;8.07;;;17.80;97.10;;;;;;5074184;28;20120;-73
2022/05/11 03:40:24;;;;;;;18.73;8.65;;;17.70;96.60;;;;;;5068032;28;20036;-72
2022/05/11 03:42:51;;;;;;;18.13;7.80;;;17.60;96.90;;;;;;5074119;28;20024;-72
2022/05/11 03:45:24;;;;;;;19.27;7.45;;;17.70;96.90;;;;;;5073820;28;20453;-72
2022/05/11 03:47:52;;;;;;;14.55;5.57;;;17.60;96.90;;;;;;5074121;28;20028;-72
2022/05/11 03:50:22;;;;;;;11.73;4.75;;;17.60;97.20;;;;;;5073935;28;20025;-72
2022/05/11 03:52:50;;;;;;;13.68;3.42;;;17.60;96.60;;;;;;5074061;28;20060;-72
2022/05/11 03:55:18;;;;;;;10.13;3.33;;;17.60;96.90;;;;;;5073583;28;20012;-72
2022/05/11 03:57:46;;;;;;;14.75;3.05;;;17.40;96.70;;;;;;5071327;28;20025;-72
2022/05/11 04:00:18;;;;;;;15.05;3.38;;;17.30;96.20;;;;;;5073759;28;20031;-72
2022/05/11 04:02:46;;;;;;;12.68;4.40;;;17.30;96.50;;;;;;5073704;28;20081;-72
2022/05/11 04:05:14;;;;;;;13.68;4.35;;;17.30;96.30;;;;;;5063922;28;20036;-72
2022/05/11 04:07:44;;;;;;;14.13;4.38;;;17.40;96.80;;;;;;5070081;28;20029;-73
2022/05/11 04:10:14;;;;;;;12.82;4.63;;;17.40;96.70;;;;;;5073662;28;20037;-73
2022/05/11 04:12:42;;;;;;;13.90;4.47;;;17.50;96.90;;;;;;5073393;28;20032;-73
2022/05/11 04:15:12;;;;;;;15.63;4.03;;;17.50;96.70;;;;;;5065294;28;20024;-71
2022/05/11 04:17:40;;;;;;;11.52;3.58;;;17.40;96.20;;;;;;5073281;28;20098;-71
2022/05/11 04:20:09;;;;;;;14.15;3.60;;;17.40;96.30;;;;;;5073353;28;20533;-72
2022/05/11 04:22:36;;;;;;;10.35;3.30;;;17.30;95.80;;;;;;5073394;28;20486;-72
2022/05/11 04:25:04;;;;;;;8.85;2.85;;;17.40;96.10;;;;;;5073223;28;20029;-72
2022/05/11 04:27:34;;;;;;;8.15;2.72;;;17.30;95.90;;;;;;5072993;28;20052;-73
2022/05/11 04:30:04;;;;;;;10.68;3.30;;;17.30;95.90;;;;;;5072285;28;20433;-72
2022/05/11 04:32:32;;;;;;;9.38;2.70;;;17.30;96.20;;;;;;5071653;28;20123;-72
2022/05/11 04:35:02;;;;;;;9.35;3.70;;;17.30;95.90;;;;;;5073110;28;20029;-72
2022/05/11 04:37:29;;;;;;;15.07;3.50;;;17.30;95.80;;;;;;5072796;28;20520;-72
2022/05/11 04:39:57;;;;;;;8.77;3.00;;;17.40;96.40;;;;;;5072834;28;20064;-73
2022/05/11 04:42:24;;;;;;;11.75;2.88;;;17.40;96.40;;;;;;5072453;28;20536;-72
2022/05/11 04:44:54;;;;;;;9.77;3.40;;;17.40;96.20;;;;;;5072873;28;20029;-72
2022/05/11 04:47:21;;;;;;;11.45;3.22;;;17.40;96.30;;;;;;5069180;28;20024;-72
2022/05/11 04:49:51;;;;;;;11.75;3.13;;;17.30;96.30;;;;;;5065370;28;20017;-72
2022/05/11 04:52:19;;;;;;;11.40;2.90;;;17.30;96.40;;;;;;5072813;28;20029;-71
2022/05/11 04:54:51;;;;;;;12.32;2.97;;;17.30;96.10;;;;;;5072749;28;20033;-72
2022/05/11 04:57:20;;;;;;;11.57;3.65;;;17.20;95.90;;;;;;5060125;28;20017;-73
2022/05/11 04:59:47;;;;;;;10.68;4.30;;;17.20;96.40;;;;;;5072652;28;20303;-75
2022/05/11 05:02:23;;;;;;;13.23;3.97;;;17.20;96.70;;;;;;5072867;28;20036;-73
2022/05/11 05:04:52;;;;;;;11.90;3.15;;;17.30;96.80;;;;;;5071200;28;20013;-73
2022/05/11 05:07:20;;;;;;;7.63;3.17;;;17.10;96.10;;;;;;5072605;28;20024;-73
2022/05/11 05:09:47;;;;;;;8.45;3.40;;;17.10;96.20;;;;;;5072550;28;20029;-73
2022/05/11 05:12:15;;;;;;;9.25;3.10;;;17.10;96.50;;;;;;5072582;28;20111;-73
2022/05/11 05:14:43;;;;;;;16.27;5.25;;;17.10;96.60;;;;;;5072484;28;20055;-72
2022/05/11 05:17:12;;;;;;;12.05;4.30;;;17.10;96.40;;;;;;5072113;28;20491;-72
2022/05/11 05:19:42;;;;;;;10.90;3.85;;;17.00;96.40;;;;;;5072337;28;20047;-71
2022/05/11 05:22:09;;;;;;;15.68;4.13;;;17.00;96.60;;;;;;5059866;28;20115;-71
2022/05/11 05:24:37;;;;;;;10.52;4.30;;;17.00;96.60;;;;;;5072474;28;20016;-72
2022/05/11 05:27:07;;;;;;;10.20;3.65;;;17.10;96.80;;;;;;5072586;28;20451;-71
2022/05/11 05:32:20;;;;;;;15.50;4.95;;;17.10;96.80;;;;;;5062898;28;20034;-72
2022/05/11 05:34:48;;;;;;;13.43;6.05;;;17.10;96.80;;;;;;5072361;28;20028;-72
2022/05/11 05:37:17;;;;;;;16.67;6.90;;;17.00;96.70;;;;;;5072442;28;20518;-72
2022/05/11 05:39:45;;;;;;;15.15;6.10;;;17.10;96.90;;;;;;5059911;28;20559;-72
2022/05/11 05:42:21;;;;;;;15.82;6.55;;;17.10;97.00;;;;;;5072447;28;20033;-72
2022/05/11 05:44:49;;;;;;;12.80;5.65;;;17.00;96.80;;;;;;5072134;28;20497;-72
2022/05/11 05:47:17;;;;;;;13.20;5.80;;;17.00;96.80;;;;;;5072303;28;20119;-73
2022/05/11 05:49:44;;;;;;;14.73;6.13;;;17.00;97.00;;;;;;5070745;28;20028;-72
2022/05/11 05:52:20;;;;;;;14.07;6.10;;;17.00;97.10;;;;;;5072147;28;20497;-72
2022/05/11 05:54:47;;;;;;;17.98;6.07;;;17.00;97.20;;;;;;5075433;28;20075;-72
2022/05/11 05:57:15;;;;;;;11.70;5.95;;;17.00;97.10;;;;;;5068840;28;20390;-72
2022/05/11 05:59:43;;;;;;;19.55;7.43;;;16.90;97.10;;;;;;5075830;28;20025;-72
2022/05/11 06:02:14;;;;;;;20.55;8.48;;;16.90;97.20;;;;;;5075800;28;20052;-72
2022/05/11 06:04:43;;;;;;;14.68;8.55;;;16.90;97.20;;;;;;5075852;28;20413;-72
2022/05/11 06:07:11;;;;;;;18.95;8.73;;;16.90;97.30;;;;;;5075949;28;20028;-73
2022/05/11 06:09:39;;;;;;;20.98;8.07;;;16.90;97.30;;;;;;5075722;28;20016;-73
2022/05/11 06:12:15;;;;;;;15.50;8.10;;;16.80;97.20;;;;;;5074376;28;20386;-71
2022/05/11 06:14:43;;;;;;;16.30;7.82;;;16.70;97.10;;;;;;5074714;28;20474;-71
2022/05/11 06:17:23;;;;;;;17.55;7.78;;;16.70;97.20;;;;;;5075813;28;20490;-73
2022/05/11 06:19:52;;;;;;;16.50;7.15;;;16.70;97.30;;;;;;5062969;28;20025;-73
2022/05/11 06:22:21;;;;;;;16.88;7.05;;;16.70;97.30;;;;;;5075636;28;20031;-73
2022/05/11 06:24:48;;;;;;;19.48;7.35;;;16.60;97.30;;;;;;5075729;28;20551;-73
2022/05/11 06:27:23;;;;;;;19.63;8.35;;;16.60;97.20;;;;;;5075576;28;20028;-73
2022/05/11 06:30:17;;;;;;;22.98;11.20;;;16.50;97.30;;;;;;5071165;28;20025;-73
2022/05/11 06:32:44;;;;;;;26.02;12.85;;;16.50;97.40;;;;;;5073823;28;20048;-72
2022/05/11 06:35:11;;;;;;;35.25;20.35;;;16.60;97.40;;;;;;5075393;28;20067;-72
2022/05/11 06:37:44;;;;;;;37.70;21.63;;;16.50;97.50;;;;;;5075230;28;20020;-72
2022/05/11 06:40:14;;;;;;;40.67;21.20;;;16.50;97.50;;;;;;5075337;28;20490;-72
2022/05/11 06:42:41;;;;;;;37.33;20.92;;;16.50;97.50;;;;;;5075204;28;20111;-73
2022/05/11 06:45:10;;;;;;;43.03;20.33;;;16.50;97.50;;;;;;5075291;28;20031;-74
2022/05/11 06:47:37;;;;;;;42.50;20.75;;;16.50;97.60;;;;;;5062171;28;20079;-71
2022/05/11 06:50:05;;;;;;;41.13;20.65;;;16.50;97.60;;;;;;5075095;28;20486;-77
2022/05/11 06:52:33;;;;;;;51.30;23.83;;;16.50;97.70;;;;;;5075077;28;20044;-73
2022/05/11 07:00:54;;;;;;;30.40;15.30;;;16.50;97.80;;;;;;5075211;28;20097;-74
2022/05/11 07:03:21;;;;;;;27.52;15.00;;;16.50;98.00;;;;;;5074133;28;20685;-73
2022/05/11 07:05:49;;;;;;;40.03;15.63;;;16.50;98.00;;;;;;5073366;28;20031;-73
2022/05/11 07:08:16;;;;;;;27.05;13.77;;;16.40;98.00;;;;;;5074686;28;20024;-72
2022/05/11 07:12:17;;;;;;;26.95;12.93;;;16.40;98.00;;;;;;5074911;28;20056;-73
2022/05/11 07:13:32;;;;;;;28.13;13.63;;;16.40;98.10;;;;;;5074771;28;20029;-73
2022/05/11 07:15:59;;;;;;;38.45;17.90;;;16.40;98.20;;;;;;5074513;28;20085;-73
2022/05/11 07:18:26;;;;;;;41.92;19.88;;;16.40;98.20;;;;;;5074536;28;20111;-72
2022/05/11 07:20:53;;;;;;;37.42;16.38;;;16.40;98.20;;;;;;5066473;28;20491;-72
2022/05/11 07:23:21;;;;;;;29.92;13.05;;;16.40;98.20;;;;;;5073077;28;20031;-72
2022/05/11 07:25:48;;;;;;;28.23;12.02;;;16.40;98.20;;;;;;5074455;28;20025;-73
2022/05/11 07:28:16;;;;;;;21.48;11.23;;;16.40;98.30;;;;;;5073175;28;20028;-73
2022/05/11 07:30:47;;;;;;;27.02;11.82;;;16.40;98.30;;;;;;5074232;28;20033;-73
2022/05/11 07:33:15;;;;;;;27.65;11.27;;;16.30;98.30;;;;;;5074542;28;20032;-72
2022/05/11 07:35:44;;;;;;;31.80;12.65;;;16.30;98.30;;;;;;5074422;28;20016;-73
2022/05/11 07:38:14;;;;;;;24.75;11.98;;;16.30;98.30;;;;;;5068920;28;20040;-73
2022/05/11 07:40:42;;;;;;;30.92;11.43;;;16.20;98.30;;;;;;5074355;28;20021;-73
2022/05/11 07:43:11;;;;;;;30.65;11.43;;;16.20;98.30;;;;;;5074068;28;20474;-73
2022/05/11 07:45:40;;;;;;;26.75;11.32;;;16.20;98.40;;;;;;5074159;28;20463;-72
2022/05/11 07:48:09;;;;;;;27.35;11.52;;;16.30;98.50;;;;;;5073910;28;20046;-72
2022/05/11 07:50:36;;;;;;;29.00;10.68;;;16.30;98.50;;;;;;5074083;28;20032;-72
2022/05/11 07:53:04;;;;;;;24.25;10.23;;;16.30;98.60;;;;;;5073874;28;20028;-73
2022/05/11 07:55:33;;;;;;;26.67;10.40;;;16.30;98.60;;;;;;5061205;28;20067;-72
2022/05/11 08:00:45;;;;;;;24.92;10.27;;;16.30;98.70;;;;;;5073566;28;20394;-72
2022/05/11 08:03:13;;;;;;;26.60;11.43;;;16.40;98.70;;;;;;5073774;28;20085;-72
2022/05/11 08:05:40;;;;;;;29.90;12.77;;;16.30;98.70;;;;;;5073492;28;20493;-72
2022/05/11 08:08:09;;;;;;;27.17;12.45;;;16.30;98.70;;;;;;5073413;28;20800;-72
2022/05/11 08:10:47;;;;;;;44.42;16.75;;;16.30;98.80;;;;;;5073521;28;20086;-71
2022/05/11 08:13:13;;;;;;;;;;;16.30;98.80;;;;;;5059635;28;20043;-72
2022/05/11 08:15:50;;;;;;;31.88;15.30;;;16.30;98.80;;;;;;5062566;28;20017;-72
2022/05/11 08:18:18;;;;;;;44.92;19.77;;;16.30;98.80;;;;;;5061582;28;20028;-72
2022/05/11 08:20:46;;;;;;;38.35;19.40;;;16.30;98.90;;;;;;5066257;28;20152;-71
2022/05/11 08:23:14;;;;;;;42.00;20.33;;;16.30;98.90;;;;;;5059710;28;20052;-72
2022/05/11 08:25:43;;;;;;;39.53;17.77;;;16.30;98.90;;;;;;5066653;28;20028;-71
2022/05/11 08:28:14;;;;;;;32.75;15.13;;;16.30;98.90;;;;;;5062502;28;20033;-72
2022/05/11 08:33:29;;;;;;;33.75;14.32;;;16.30;98.90;;;;;;5062190;28;20044;-73
2022/05/11 08:36:04;;;;;;;31.65;13.00;;;16.30;98.90;;;;;;5063865;28;20073;-75
2022/05/11 08:38:34;;;;;;;26.65;12.98;;;16.20;98.90;;;;;;5058070;28;20155;-74
2022/05/11 08:41:16;;;;;;;33.17;15.18;;;16.20;98.90;;;;;;5068707;28;20028;-73
2022/05/11 08:43:44;;;;;;;34.95;15.60;;;16.20;98.90;;;;;;5073018;28;20067;-72
2022/05/11 08:46:32;;;;;;;41.05;16.27;;;16.20;99.00;;;;;;5066736;28;20498;-72
2022/05/11 08:49:03;;;;;;;39.72;17.70;;;16.20;99.00;;;;;;5071342;28;20028;-73
2022/05/11 08:51:51;;;;;;;43.83;18.58;;;16.20;99.00;;;;;;5063977;28;20075;-74
2022/05/11 08:54:55;;;;;;;51.33;18.15;;;16.20;99.00;;;;;;5054628;28;20108;-73
2022/05/11 08:57:26;;;;;;;43.80;19.67;;;16.20;99.00;;;;;;5058876;28;20051;-72
2022/05/11 08:59:59;;;;;;;56.05;20.63;;;16.10;99.00;;;;;;5061320;28;20059;-73
2022/05/11 09:02:55;;;;;;;61.20;21.63;;;16.10;99.00;;;;;;5068421;28;20445;-74
2022/05/11 09:05:27;;;;;;;65.45;31.08;;;16.10;99.10;;;;;;5069526;28;20024;-72
2022/05/11 09:07:56;;;;;;;72.63;34.72;;;16.20;99.10;;;;;;5063366;28;20021;-73
2022/05/11 09:10:36;;;;;;;70.07;37.90;;;16.20;99.20;;;;;;5065795;28;20110;-72
2022/05/11 09:13:14;;;;;;;43.25;21.30;;;16.20;99.20;;;;;;5070046;28;20359;-73
2022/05/11 09:15:56;;;;;;;45.33;19.98;;;16.20;99.20;;;;;;5062482;28;20036;-72
2022/05/11 09:18:39;;;;;;;55.75;19.63;;;16.10;99.20;;;;;;5058477;28;20041;-74
2022/05/11 09:21:29;;;;;;;42.70;18.35;;;16.20;99.30;;;;;;5060221;28;20033;-72
2022/05/11 09:24:16;;;;;;;53.38;22.88;;;16.10;99.30;;;;;;5069373;28;20044;-72
2022/05/11 09:26:49;;;;;;;43.03;18.42;;;16.10;99.30;;;;;;5058444;28;20443;-73
2022/05/11 09:29:31;;;;;;;40.65;19.88;;;16.00;99.30;;;;;;5067054;28;20395;-73
2022/05/11 09:32:33;;;;;;;51.80;23.95;;;16.00;99.40;;;;;;5066075;28;20486;-72
2022/05/11 09:35:18;;;;;;;37.88;15.25;;;16.00;99.40;;;;;;5062116;28;20082;-74
2022/05/11 09:37:57;;;;;;;36.92;16.25;;;16.00;99.50;;;;;;5058106;28;20032;-72
2022/05/11 09:40:24;;;;;;;33.08;13.23;;;16.00;99.50;;;;;;5060063;28;20394;-73
2022/05/11 09:42:59;;;;;;;34.42;14.00;;;16.00;99.50;;;;;;5069730;28;20028;-73
2022/05/11 09:45:45;;;;;;;29.02;11.32;;;16.00;99.50;;;;;;5061400;28;20039;-72
2022/05/11 09:48:28;;;;;;;22.77;11.30;;;16.00;99.60;;;;;;5064213;28;20038;-73
2022/05/11 09:50:59;;;;;;;31.85;12.73;;;15.90;99.60;;;;;;5060981;28;20471;-72
2022/05/11 09:53:39;;;;;;;35.85;12.73;;;15.90;99.70;;;;;;5062955;28;20043;-72
2022/05/11 09:56:22;;;;;;;28.52;11.40;;;16.00;99.80;;;;;;5060631;28;20035;-72
2022/05/11 09:58:50;;;;;;;40.35;14.90;;;16.00;99.80;;;;;;5067136;28;20055;-72
2022/05/11 10:01:29;;;;;;;42.50;17.75;;;15.90;99.80;;;;;;5071693;28;20025;-72
2022/05/11 10:04:05;;;;;;;38.97;16.73;;;16.00;99.90;;;;;;5070493;28;20043;-74
2022/05/11 10:06:39;;;;;;;46.33;17.85;;;16.00;99.90;;;;;;5071457;28;20021;-72
2022/05/11 10:09:09;;;;;;;43.28;17.20;;;16.00;99.90;;;;;;5068146;28;20074;-75
2022/05/11 10:11:41;;;;;;;109.13;69.68;;;16.00;99.90;;;;;;5058362;28;20029;-74
2022/05/11 10:23:02;;;;;;;97.32;40.20;;;15.90;99.90;;;;;;5063212;28;20509;-72
2022/05/11 10:25:37;;;;;;;116.55;47.47;;;15.90;99.90;;;;;;5060684;28;20036;-74
2022/05/11 10:28:25;;;;;;;147.80;50.28;;;15.90;99.90;;;;;;5058494;28;20101;-73
2022/05/11 10:30:55;;;;;;;135.10;44.70;;;15.90;99.90;;;;;;5053435;28;20021;-72
2022/05/11 10:33:40;;;;;;;96.55;34.17;;;15.90;99.90;;;;;;5068344;28;20541;-73
2022/05/11 10:36:29;;;;;;;88.13;29.40;;;15.90;99.90;;;;;;5057128;28;20475;-73
2022/05/11 10:39:24;;;;;;;65.05;22.77;;;16.00;99.90;;;;;;5054380;28;20036;-72
2022/05/11 10:42:09;;;;;;;41.97;16.48;;;16.00;99.90;;;;;;5070604;28;20486;-73
2022/05/11 10:44:52;;;;;;;40.33;14.18;;;16.10;99.90;;;;;;5067691;28;20036;-73
2022/05/11 10:47:34;;;;;;;37.08;11.93;;;16.00;99.90;;;;;;5056757;28;20028;-73
2022/05/11 10:50:23;;;;;;;36.58;11.48;;;16.00;99.90;;;;;;5062565;28;20027;-72
2022/05/11 10:53:23;;;;;;;32.10;10.07;;;16.00;99.90;;;;;;5071295;28;20047;-73
2022/05/11 10:56:06;;;;;;;30.15;10.20;;;16.00;99.90;;;;;;5063464;28;20390;-72
2022/05/11 10:58:56;;;;;;;29.30;10.57;;;16.10;99.90;;;;;;5071404;28;20108;-73
2022/05/11 11:01:26;;;;;;;27.90;11.45;;;16.00;99.90;;;;;;5067456;28;20035;-73
2022/05/11 11:04:09;;;;;;;29.83;11.15;;;16.00;99.90;;;;;;5066812;28;20028;-73
2022/05/11 11:07:13;;;;;;;34.33;11.93;;;16.00;99.90;;;;;;5069169;28;20063;-72
2022/05/11 11:09:57;;;;;;;35.80;13.75;;;16.00;99.90;;;;;;5072605;28;20273;-72
2022/05/11 11:12:42;;;;;;;44.42;13.30;;;16.00;99.90;;;;;;5071856;28;20029;-73
2022/05/11 11:15:17;;;;;;;34.00;12.52;;;16.00;99.90;;;;;;5063029;28;20104;-73
2022/05/11 11:17:46;;;;;;;36.42;12.73;;;16.00;99.90;;;;;;5072779;28;20119;-73
2022/05/11 11:20:17;;;;;;;36.22;13.52;;;16.00;99.90;;;;;;5068158;28;20017;-73
2022/05/11 11:23:15;;;;;;;31.60;12.40;;;16.00;99.90;;;;;;5060136;28;20583;-72
2022/05/11 11:26:21;;;;;;;35.63;13.38;;;16.00;99.90;;;;;;5073198;28;20032;-72
2022/05/11 11:29:18;;;;;;;38.83;14.07;;;16.00;99.90;;;;;;5045108;28;20045;-73
2022/05/11 11:32:09;;;;;;;36.22;13.25;;;15.90;99.90;;;;;;5062182;28;20562;-74
2022/05/11 11:34:39;;;;;;;39.58;12.98;;;15.90;99.90;;;;;;5059921;28;20055;-72
2022/05/11 11:37:25;;;;;;;34.28;13.52;;;16.00;99.90;;;;;;5064649;28;20032;-73
2022/05/11 11:39:57;;;;;;;42.85;13.98;;;16.00;99.90;;;;;;5069396;28;20083;-72
2022/05/11 11:42:39;;;;;;;41.72;14.70;;;16.00;99.90;;;;;;5061619;28;20098;-72
2022/05/11 11:45:10;;;;;;;35.38;14.00;;;16.00;99.90;;;;;;5060056;28;20437;-71
2022/05/11 11:47:41;;;;;;;41.67;15.15;;;16.00;99.90;;;;;;5069896;28;20020;-71
2022/05/11 11:50:34;;;;;;;42.72;14.45;;;15.90;99.90;;;;;;5064416;28;20380;-72
2022/05/11 11:53:21;;;;;;;44.42;15.88;;;16.00;99.90;;;;;;5062237;28;20091;-71
2022/05/11 11:55:50;;;;;;;49.43;16.87;;;15.90;99.90;;;;;;5057880;28;20028;-70
2022/05/11 11:58:32;;;;;;;47.55;17.95;;;15.90;99.90;;;;;;5061761;28;20728;-71
2022/05/11 12:01:11;;;;;;;51.80;18.67;;;15.90;99.90;;;;;;5072149;28;20025;-73
2022/05/11 12:03:52;;;;;;;48.47;18.85;;;15.90;99.90;;;;;;5058436;28;20028;-71
2022/05/11 12:15:02;;;;;;;59.88;22.25;;;15.90;99.90;;;;;;5070699;28;20181;-72
2022/05/11 12:17:34;;;;;;;56.40;22.08;;;15.80;99.90;;;;;;5066612;28;20032;-71
2022/05/11 12:20:17;;;;;;;68.10;22.92;;;15.90;99.90;;;;;;5060576;28;20044;-71
2022/05/11 12:22:50;;;;;;;49.42;21.08;;;15.80;99.90;;;;;;5071684;28;20073;-70
2022/05/11 12:25:29;;;;;;;53.05;21.45;;;15.90;99.90;;;;;;5070662;28;20498;-71
2022/05/11 12:28:02;;;;;;;57.95;21.25;;;15.80;99.90;;;;;;5067293;28;20082;-72
2022/05/11 12:30:42;;;;;;;61.63;22.25;;;15.80;99.90;;;;;;5072843;28;20108;-71
2022/05/11 12:33:18;;;;;;;66.97;24.38;;;15.90;99.90;;;;;;5072748;28;20044;-70
2022/05/11 12:35:49;;;;;;;58.63;23.65;;;15.80;99.90;;;;;;5072778;28;20024;-73
2022/05/11 12:38:34;;;;;;;74.32;25.73;;;15.80;99.90;;;;;;5066152;28;20490;-71
2022/05/11 12:41:08;;;;;;;73.30;25.17;;;15.90;99.90;;;;;;5071612;28;20028;-72
2022/05/11 12:43:58;;;;;;;73.03;24.42;;;15.90;99.90;;;;;;5061294;28;20036;-71
2022/05/11 12:46:26;;;;;;;65.88;25.58;;;15.80;99.90;;;;;;5059146;28;20478;-72
2022/05/11 12:48:55;;;;;;;79.47;27.98;;;15.90;99.90;;;;;;5067512;28;20043;-72
2022/05/11 12:51:34;;;;;;;86.43;29.80;;;15.90;99.90;;;;;;5072540;28;20523;-72
2022/05/11 12:54:05;;;;;;;73.25;27.98;;;16.00;99.90;;;;;;5068643;28;20078;-72
2022/05/11 12:56:38;;;;;;;79.50;31.48;;;15.90;99.90;;;;;;5061489;28;20060;-72
2022/05/11 12:59:23;;;;;;;82.68;30.75;;;16.00;99.90;;;;;;5068833;28;20063;-72
2022/05/11 13:01:53;;;;;;;83.82;33.25;;;16.00;99.90;;;;;;5061673;28;20029;-72
2022/05/11 13:04:25;;;;;;;126.85;38.60;;;16.00;99.90;;;;;;5055263;28;20033;-72
2022/05/11 13:06:57;;;;;;;95.95;33.75;;;16.00;99.90;;;;;;5070618;28;20023;-73
2022/05/11 13:09:45;;;;;;;97.25;34.78;;;15.90;99.90;;;;;;5058518;28;20040;-73
2022/05/11 13:12:15;;;;;;;104.55;33.75;;;16.00;99.90;;;;;;5070804;28;20040;-71
2022/05/11 13:14:54;;;;;;;70.60;28.92;;;15.90;99.90;;;;;;5070215;28;20031;-71
2022/05/11 13:17:35;;;;;;;91.10;32.30;;;15.90;99.90;;;;;;5070362;28;20025;-71
2022/05/11 13:20:32;;;;;;;102.47;33.85;;;15.90;99.90;;;;;;5060272;28;20509;-71
2022/05/11 13:23:01;;;;;;;78.15;30.95;;;16.00;99.90;;;;;;5064434;28;20068;-72
2022/05/11 13:25:45;;;;;;;91.82;31.50;;;15.90;99.90;;;;;;5061885;28;20024;-73
2022/05/11 13:28:23;;;;;;;76.22;27.95;;;15.90;99.90;;;;;;5062559;28;20032;-71
2022/05/11 13:30:56;;;;;;;82.65;26.05;;;16.00;99.90;;;;;;5067312;28;20028;-72
2022/05/11 13:33:32;;;;;;;69.95;25.25;;;16.00;99.90;;;;;;5066508;28;20044;-72
2022/05/11 13:36:11;;;;;;;63.38;23.88;;;15.90;99.90;;;;;;5066609;28;20051;-72
2022/05/11 13:38:49;;;;;;;82.47;25.45;;;15.90;99.90;;;;;;5066964;28;20512;-72
2022/05/11 13:41:38;;;;;;;70.43;22.67;;;15.90;99.90;;;;;;5067097;28;20512;-72
2022/05/11 13:44:53;;;;;;;69.53;23.98;;;15.90;99.90;;;;;;5062032;28;20482;-72